Poole, Kentucky
Current Conditions -  °F | °C
As of 6:15 PM on Wednesday 26 Nov 2014 (Local Time) from KEHR Reporting Station
Overcast Overcast  
Wind Chill: 34°   Ceiling: 1200
Heat Index: 34°   Visibility: 2mi
Dew Point: 28°   Wind: 0mph
Humidity: 81%   Direction: NA
Pressure: 30.05"   Gusts: NA
Location:  37.64°N, 87.64°W
Report Text: KEHR 270015Z AUTO 00000KT 2SM OVC012 01/M02 A3005 RMK AO1 P0002
Loading
Personal Weather Stations






























Interactive Weather Map New forecast layout! Learn more

10-Day Weather Forecast

Advertisements
Track Severe Weather on mobile